createdAt,value
2016-04-25T00:00:26.497Z,0
2016-04-25T00:01:26.609Z,0
2016-04-25T00:02:26.533Z,0
2016-04-25T00:03:26.582Z,0
2016-04-25T00:04:26.616Z,0
2016-04-25T00:05:26.667Z,0
2016-04-25T00:06:26.685Z,0
2016-04-25T00:07:26.718Z,0
2016-04-25T00:08:26.752Z,0
2016-04-25T00:09:26.832Z,0
2016-04-25T00:10:26.836Z,0
2016-04-25T00:11:26.902Z,0
2016-04-25T00:12:28.170Z,0
2016-04-25T00:13:26.922Z,0
2016-04-25T00:14:26.971Z,0
2016-04-25T00:15:27.006Z,0
2016-04-25T00:16:27.056Z,0
2016-04-25T00:17:26.293Z,0
2016-04-25T00:18:26.326Z,0
2016-04-25T00:19:27.172Z,0
2016-04-25T00:20:27.237Z,0
2016-04-25T00:21:27.054Z,0
2016-04-25T00:22:27.248Z,0
2016-04-25T00:23:27.329Z,0
2016-04-25T00:24:27.317Z,0
2016-04-25T00:25:27.351Z,0
2016-04-25T00:26:27.212Z,0
2016-04-25T00:27:27.262Z,0
2016-04-25T00:28:27.437Z,0
2016-04-25T00:29:27.486Z,0
2016-04-25T00:30:27.537Z,0
2016-04-25T00:31:27.586Z,0
2016-04-25T00:32:27.589Z,0
2016-04-25T00:33:27.623Z,0
2016-04-25T00:34:27.687Z,0
2016-04-25T00:35:27.722Z,0
2016-04-25T00:36:27.708Z,0
2016-04-25T00:37:27.775Z,0
2016-04-25T00:38:27.808Z,0
2016-04-25T00:39:27.889Z,0
2016-04-25T00:40:27.844Z,0
2016-04-25T00:41:27.894Z,0
2016-04-25T00:42:27.630Z,0
2016-04-25T00:43:27.962Z,0
2016-04-25T00:44:27.996Z,0
2016-04-25T00:45:28.061Z,0
2016-04-25T00:46:28.110Z,0
2016-04-25T00:47:27.973Z,0
2016-04-25T00:48:28.147Z,0
2016-04-25T00:49:28.166Z,0
2016-04-25T00:50:28.309Z,0
2016-04-25T00:51:28.233Z,0
2016-04-25T00:52:28.126Z,0
2016-04-25T00:53:28.380Z,0
2016-04-25T00:54:28.382Z,0
2016-04-25T00:55:27.619Z,0
2016-04-25T00:56:28.418Z,0
2016-04-25T00:57:29.625Z,0
2016-04-25T00:58:28.534Z,0
2016-04-25T00:59:28.521Z,0
2016-04-25T01:00:28.586Z,0
2016-04-25T01:01:28.619Z,0
2016-04-25T01:02:28.622Z,0
2016-04-25T01:03:28.657Z,0
2016-04-25T01:04:28.675Z,0
2016-04-25T01:05:27.943Z,0
2016-04-25T01:06:28.742Z,0
2016-04-25T01:07:28.839Z,0
2016-04-25T01:08:28.858Z,0
2016-04-25T01:09:28.892Z,0
2016-04-25T01:10:28.894Z,0
2016-04-25T01:11:28.911Z,0
2016-04-25T01:12:29.227Z,0
2016-04-25T01:13:29.074Z,0
2016-04-25T01:14:29.014Z,0
2016-04-25T01:15:29.079Z,0
2016-04-25T01:16:29.191Z,0
2016-04-25T01:17:29.163Z,0
2016-04-25T01:18:29.166Z,0
2016-04-25T01:19:29.199Z,0
2016-04-25T01:20:29.296Z,0
2016-04-25T01:21:29.282Z,0
2016-04-25T01:22:29.317Z,0
2016-04-25T01:23:28.648Z,0
2016-04-25T01:24:29.431Z,0
2016-04-25T01:25:28.637Z,0
2016-04-25T01:26:29.421Z,0
2016-04-25T01:27:30.143Z,0
2016-04-25T01:28:29.365Z,0
2016-04-25T01:29:29.539Z,0
2016-04-25T01:30:29.417Z,0
2016-04-25T01:31:29.701Z,0
2016-04-25T01:32:29.672Z,0
2016-04-25T01:33:29.675Z,0
2016-04-25T01:34:29.693Z,0
2016-04-25T01:35:29.851Z,0
2016-04-25T01:36:29.776Z,0
2016-04-25T01:37:29.826Z,0
2016-04-25T01:38:28.953Z,0
2016-04-25T01:39:29.909Z,0
2016-04-25T01:40:29.912Z,0
2016-04-25T01:41:29.790Z,0
2016-04-25T01:42:30.120Z,0
2016-04-25T01:43:29.982Z,0
2016-04-25T01:44:30.063Z,0
2016-04-25T01:45:30.113Z,0
2016-04-25T01:46:30.194Z,0
2016-04-25T01:47:30.166Z,0
2016-04-25T01:48:30.183Z,0
2016-04-25T01:49:30.264Z,0
2016-04-25T01:50:30.314Z,0
2016-04-25T01:51:30.301Z,0
2016-04-25T01:52:30.319Z,0
2016-04-25T01:53:30.432Z,0
2016-04-25T01:54:30.419Z,0
2016-04-25T01:55:30.280Z,0
2016-04-25T01:56:30.502Z,0
2016-04-25T01:57:33.082Z,0
2016-04-25T01:58:30.242Z,0
2016-04-25T01:59:30.557Z,0
2016-04-25T02:00:30.637Z,0
2016-04-25T02:01:30.704Z,0
2016-04-25T02:02:30.659Z,0
2016-04-25T02:03:30.709Z,0
2016-04-25T02:04:30.804Z,0
2016-04-25T02:05:30.761Z,0
2016-04-25T02:06:30.795Z,0
2016-04-25T02:07:30.813Z,0
2016-04-25T02:08:30.878Z,0
2016-04-25T02:09:30.928Z,0
2016-04-25T02:10:30.945Z,0
2016-04-25T02:11:30.981Z,0
2016-04-25T02:12:33.264Z,0
2016-04-25T02:13:31.719Z,0
2016-04-25T02:14:31.066Z,0
2016-04-25T02:15:31.178Z,0
2016-04-25T02:16:31.134Z,0
2016-04-25T02:17:31.168Z,0
2016-04-25T02:18:31.217Z,0
2016-04-25T02:19:31.298Z,0
2016-04-25T02:20:31.269Z,0
2016-04-25T02:21:31.289Z,0
2016-04-25T02:22:31.385Z,0
2016-04-25T02:23:31.434Z,0
2016-04-25T02:24:31.405Z,0
2016-04-25T02:25:31.439Z,0
2016-04-25T02:26:31.552Z,0
2016-04-25T02:27:32.055Z,0
2016-04-25T02:28:31.462Z,0
2016-04-25T02:29:31.591Z,0
2016-04-25T02:30:31.687Z,0
2016-04-25T02:31:31.659Z,0
2016-04-25T02:32:31.677Z,0
2016-04-25T02:33:31.774Z,0
2016-04-25T02:34:31.808Z,0
2016-04-25T02:35:31.779Z,0
2016-04-25T02:36:31.812Z,0
2016-04-25T02:37:31.893Z,0
2016-04-25T02:38:31.911Z,0
2016-04-25T02:39:31.914Z,0
2016-04-25T02:40:31.996Z,0
2016-04-25T02:41:32.045Z,0
2016-04-25T02:42:31.939Z,0
2016-04-25T02:43:33.331Z,0
2016-04-25T02:44:32.162Z,0
2016-04-25T02:45:32.165Z,0
2016-04-25T02:46:32.153Z,0
2016-04-25T02:47:32.217Z,0
2016-04-25T02:48:32.283Z,0
2016-04-25T02:49:32.286Z,0
2016-04-25T02:50:32.272Z,0
2016-04-25T02:51:32.369Z,0
2016-04-25T02:52:32.403Z,0
2016-04-25T02:53:32.390Z,0
2016-04-25T02:54:32.424Z,0
2016-04-25T02:55:32.473Z,0
2016-04-25T02:56:32.570Z,0
2016-04-25T02:57:32.557Z,0
2016-04-25T02:58:33.732Z,0
2016-04-25T02:59:32.594Z,0
2016-04-25T03:00:32.534Z,0
2016-04-25T03:01:32.646Z,0
2016-04-25T03:02:32.726Z,0
2016-04-25T03:03:32.761Z,0
2016-04-25T03:04:32.779Z,0
2016-04-25T03:05:32.781Z,0
2016-04-25T03:06:32.832Z,0
2016-04-25T03:07:32.881Z,0
2016-04-25T03:08:32.898Z,0
2016-04-25T03:09:32.933Z,0
2016-04-25T03:10:32.232Z,0
2016-04-25T03:11:33.017Z,0
2016-04-25T03:12:33.019Z,0
2016-04-25T03:13:34.084Z,0
2016-04-25T03:14:33.165Z,0
2016-04-25T03:15:32.370Z,0
2016-04-25T03:16:33.186Z,0
2016-04-25T03:17:32.533Z,0
2016-04-25T03:18:33.253Z,0
2016-04-25T03:19:33.257Z,0
2016-04-25T03:20:33.306Z,0
2016-04-25T03:21:33.418Z,0
2016-04-25T03:22:33.389Z,0
2016-04-25T03:23:33.408Z,0
2016-04-25T03:24:33.441Z,0
2016-04-25T03:25:33.554Z,0
2016-04-25T03:26:33.494Z,0
2016-04-25T03:27:34.325Z,0
2016-04-25T03:28:34.890Z,0
2016-04-25T03:29:33.643Z,0
2016-04-25T03:30:33.629Z,0
2016-04-25T03:31:32.976Z,0
2016-04-25T03:32:33.761Z,0
2016-04-25T03:33:33.747Z,0
2016-04-25T03:34:33.766Z,0
2016-04-25T03:35:33.799Z,0
2016-04-25T03:36:33.912Z,0
2016-04-25T03:37:33.868Z,0
2016-04-25T03:38:33.917Z,0
2016-04-25T03:39:34.014Z,0
2016-04-25T03:40:34.000Z,0
2016-04-25T03:41:33.987Z,0
2016-04-25T03:42:34.022Z,0
2016-04-25T03:43:34.587Z,0
2016-04-25T03:44:34.089Z,0
2016-04-25T03:45:34.139Z,5
2016-04-25T03:46:34.220Z,5
2016-04-25T03:47:34.270Z,5
2016-04-25T03:48:34.241Z,5
2016-04-25T03:49:34.259Z,5
2016-04-25T03:50:34.294Z,5
2016-04-25T03:51:34.327Z,10
2016-04-25T03:52:34.361Z,10
2016-04-25T03:53:34.395Z,10
2016-04-25T03:54:34.507Z,10
2016-04-25T03:55:34.478Z,10
2016-04-25T03:56:34.497Z,15
2016-04-25T03:57:34.563Z,15
2016-04-25T03:58:34.205Z,15
2016-04-25T03:59:34.613Z,15
2016-04-25T04:00:34.616Z,15
2016-04-25T04:01:34.699Z,20
2016-04-25T04:02:34.732Z,20
2016-04-25T04:03:34.718Z,20
2016-04-25T04:04:34.799Z,20
2016-04-25T04:05:34.834Z,25
2016-04-25T04:06:34.821Z,25
2016-04-25T04:07:34.885Z,25
2016-04-25T04:08:34.873Z,25
2016-04-25T04:09:34.970Z,25
2016-04-25T04:10:34.973Z,30
2016-04-25T04:11:34.990Z,30
2016-04-25T04:12:35.039Z,25
2016-04-25T04:13:35.558Z,25
2016-04-25T04:14:35.077Z,25
2016-04-25T04:15:35.142Z,30
2016-04-25T04:16:35.145Z,30
2016-04-25T04:17:35.225Z,30
2016-04-25T04:18:35.212Z,35
2016-04-25T04:19:35.247Z,35
2016-04-25T04:20:35.358Z,40
2016-04-25T04:21:35.331Z,40
2016-04-25T04:22:35.286Z,40
2016-04-25T04:23:35.383Z,45
2016-04-25T04:24:35.244Z,45
2016-04-25T04:25:35.481Z,45
2016-04-25T04:26:35.468Z,50
2016-04-25T04:27:35.534Z,50
2016-04-25T04:28:36.364Z,50
2016-04-25T04:29:35.586Z,50
2016-04-25T04:30:35.697Z,55
2016-04-25T04:31:35.654Z,55
2016-04-25T04:32:35.702Z,60
2016-04-25T04:33:35.894Z,60
2016-04-25T04:34:35.755Z,60
2016-04-25T04:35:35.805Z,60
2016-04-25T04:36:35.823Z,60
2016-04-25T04:37:35.076Z,65
2016-04-25T04:38:35.954Z,60
2016-04-25T04:39:35.925Z,60
2016-04-25T04:40:35.928Z,60
2016-04-25T04:41:35.962Z,60
2016-04-25T04:42:36.059Z,60
2016-04-25T04:43:36.482Z,60
2016-04-25T04:44:36.204Z,55
2016-04-25T04:45:36.097Z,55
2016-04-25T04:46:36.116Z,55
2016-04-25T04:47:36.228Z,60
2016-04-25T04:48:36.356Z,60
2016-04-25T04:49:36.248Z,60
2016-04-25T04:50:38.267Z,60
2016-04-25T04:51:37.004Z,60
2016-04-25T04:52:36.992Z,65
2016-04-25T04:53:35.603Z,65
2016-04-25T04:54:36.466Z,70
2016-04-25T04:55:36.577Z,70
2016-04-25T04:56:36.799Z,70
2016-04-25T04:57:36.724Z,70
2016-04-25T04:58:37.319Z,70
2016-04-25T04:59:37.479Z,75
2016-04-25T05:00:37.107Z,75
2016-04-25T05:01:36.828Z,70
2016-04-25T05:02:36.752Z,70
2016-04-25T05:03:36.724Z,70
2016-04-25T05:04:36.805Z,70
2016-04-25T05:05:36.792Z,70
2016-04-25T05:06:36.810Z,75
2016-04-25T05:07:36.969Z,75
2016-04-25T05:08:36.940Z,80
2016-04-25T05:09:39.021Z,80
2016-04-25T05:10:36.962Z,85
2016-04-25T05:11:40.449Z,85
2016-04-25T05:12:36.331Z,85
2016-04-25T05:13:37.158Z,85
2016-04-25T05:14:37.206Z,90
2016-04-25T05:15:37.268Z,90
2016-04-25T05:16:37.424Z,85
2016-04-25T05:17:37.511Z,85
2016-04-25T05:18:37.530Z,90
2016-04-25T05:19:38.141Z,95
2016-04-25T05:20:37.629Z,95
2016-04-25T05:21:37.616Z,100
2016-04-25T05:22:37.657Z,100
2016-04-25T05:23:37.682Z,100
2016-04-25T05:24:37.738Z,90
2016-04-25T05:25:36.996Z,85
2016-04-25T05:26:37.816Z,90
2016-04-25T05:27:37.899Z,105
2016-04-25T05:28:38.123Z,115
2016-04-25T05:29:37.908Z,120
2016-04-25T05:30:37.945Z,130
2016-04-25T05:31:37.981Z,140
2016-04-25T05:32:38.093Z,145
2016-04-25T05:33:38.081Z,150
2016-04-25T05:34:38.100Z,150
2016-04-25T05:35:38.229Z,155
2016-04-25T05:36:43.701Z,155
2016-04-25T05:37:38.252Z,155
2016-04-25T05:38:38.269Z,155
2016-04-25T05:39:38.555Z,150
2016-04-25T05:40:38.323Z,145
2016-04-25T05:41:40.717Z,130
2016-04-25T05:42:38.594Z,130
2016-04-25T05:43:39.301Z,140
2016-04-25T05:44:39.756Z,145
2016-04-25T05:45:38.649Z,140
2016-04-25T05:46:38.605Z,135
2016-04-25T05:47:38.608Z,125
2016-04-25T05:48:39.189Z,115
2016-04-25T05:49:39.473Z,115
2016-04-25T05:50:38.975Z,115
2016-04-25T05:51:40.508Z,135
2016-04-25T05:52:39.309Z,155
2016-04-25T05:53:39.124Z,175
2016-04-25T05:54:38.782Z,175
2016-04-25T05:55:38.833Z,170
2016-04-25T05:56:38.851Z,175
2016-04-25T05:57:38.869Z,175
2016-04-25T05:58:38.810Z,155
2016-04-25T05:59:39.077Z,155
2016-04-25T06:00:38.987Z,150
2016-04-25T06:01:39.942Z,175
2016-04-25T06:02:39.852Z,185
2016-04-25T06:03:41.135Z,195
2016-04-25T06:04:39.747Z,195
2016-04-25T06:05:40.422Z,195
2016-04-25T06:06:39.331Z,195
2016-04-25T06:07:38.959Z,200
2016-04-25T06:08:38.665Z,235
2016-04-25T06:09:39.354Z,270
2016-04-25T06:10:39.389Z,315
2016-04-25T06:11:39.375Z,325
2016-04-25T06:12:39.425Z,330
2016-04-25T06:13:39.272Z,320
2016-04-25T06:14:39.446Z,310
2016-04-25T06:15:39.589Z,290
2016-04-25T06:16:39.405Z,275
2016-04-25T06:17:39.564Z,255
2016-04-25T06:18:39.581Z,210
2016-04-25T06:19:39.694Z,180
2016-04-25T06:20:39.916Z,175
2016-04-25T06:21:39.527Z,170
2016-04-25T06:22:39.718Z,160
2016-04-25T06:23:39.846Z,160
2016-04-25T06:24:39.833Z,170
2016-04-25T06:25:39.836Z,175
2016-04-25T06:26:40.323Z,190
2016-04-25T06:27:39.951Z,220
2016-04-25T06:28:42.125Z,230
2016-04-25T06:29:42.144Z,260
2016-04-25T06:30:40.240Z,280
2016-04-25T06:31:40.196Z,305
2016-04-25T06:32:40.074Z,325
2016-04-25T06:33:40.373Z,340
2016-04-25T06:34:40.016Z,325
2016-04-25T06:35:40.192Z,285
2016-04-25T06:36:40.366Z,255
2016-04-25T06:37:45.758Z,230
2016-04-25T06:38:40.528Z,205
2016-04-25T06:39:40.342Z,195
2016-04-25T06:40:40.392Z,190
2016-04-25T06:41:40.426Z,195
2016-04-25T06:42:40.460Z,205
2016-04-25T06:43:41.478Z,215
2016-04-25T06:44:40.357Z,210
2016-04-25T06:45:40.562Z,210
2016-04-25T06:46:40.580Z,190
2016-04-25T06:47:40.582Z,180
2016-04-25T06:48:40.649Z,185
2016-04-25T06:49:40.744Z,185
2016-04-25T06:50:40.826Z,185
2016-04-25T06:51:40.734Z,175
2016-04-25T06:52:40.768Z,170
2016-04-25T06:53:40.895Z,175
2016-04-25T06:54:41.024Z,180
2016-04-25T06:55:40.886Z,185
2016-04-25T06:56:40.920Z,190
2016-04-25T06:57:40.359Z,210
2016-04-25T06:58:41.206Z,240
2016-04-25T06:59:40.209Z,295
2016-04-25T07:00:41.290Z,355
2016-04-25T07:01:41.105Z,360
2016-04-25T07:02:41.107Z,320
2016-04-25T07:03:41.141Z,325
2016-04-25T07:04:41.269Z,305
2016-04-25T07:05:41.225Z,295
2016-04-25T07:06:41.884Z,280
2016-04-25T07:07:41.699Z,230
2016-04-25T07:08:41.374Z,235
2016-04-25T07:09:41.361Z,280
2016-04-25T07:10:41.410Z,335
2016-04-25T07:11:41.475Z,280
2016-04-25T07:12:41.525Z,220
2016-04-25T07:13:42.934Z,250
2016-04-25T07:14:41.827Z,275
2016-04-25T07:15:42.033Z,335
2016-04-25T07:16:41.629Z,320
2016-04-25T07:17:42.148Z,310
2016-04-25T07:18:41.776Z,340
2016-04-25T07:19:43.044Z,325
2016-04-25T07:20:41.734Z,250
2016-04-25T07:21:41.831Z,250
2016-04-25T07:22:44.489Z,265
2016-04-25T07:23:41.851Z,275
2016-04-25T07:24:44.776Z,270
2016-04-25T07:25:41.951Z,270
2016-04-25T07:26:42.234Z,305
2016-04-25T07:27:42.878Z,340
2016-04-25T07:28:42.475Z,340
2016-04-25T07:29:42.398Z,330
2016-04-25T07:30:42.136Z,300
2016-04-25T07:31:41.576Z,290
2016-04-25T07:32:42.220Z,310
2016-04-25T07:33:47.269Z,385
2016-04-25T07:34:42.428Z,355
2016-04-25T07:35:43.369Z,350
2016-04-25T07:36:42.339Z,395
2016-04-25T07:37:43.577Z,340
2016-04-25T07:38:44.297Z,295
2016-04-25T07:39:42.692Z,330
2016-04-25T07:40:42.475Z,330
2016-04-25T07:41:42.572Z,315
2016-04-25T07:42:42.512Z,315
2016-04-25T07:43:43.655Z,350
2016-04-25T07:44:43.048Z,390
2016-04-25T07:45:43.005Z,400
2016-04-25T07:46:42.694Z,435
2016-04-25T07:47:43.166Z,450
2016-04-25T07:48:41.996Z,475
2016-04-25T07:49:42.812Z,525
2016-04-25T07:50:42.830Z,530
2016-04-25T07:51:42.879Z,465
2016-04-25T07:52:45.118Z,380
2016-04-25T07:53:42.948Z,380
2016-04-25T07:54:44.185Z,400
2016-04-25T07:55:42.298Z,365
2016-04-25T07:56:43.081Z,270
2016-04-25T07:57:48.739Z,240
2016-04-25T07:58:44.399Z,240
2016-04-25T07:59:43.245Z,240
2016-04-25T08:00:43.201Z,260
2016-04-25T08:01:44.079Z,285
2016-04-25T08:02:43.222Z,280
2016-04-25T08:03:43.381Z,280
2016-04-25T08:04:43.384Z,275
2016-04-25T08:05:43.449Z,285
2016-04-25T08:06:43.467Z,305
2016-04-25T08:07:42.689Z,310
2016-04-25T08:08:42.988Z,320
2016-04-25T08:09:43.569Z,325
2016-04-25T08:10:43.619Z,330
2016-04-25T08:11:44.106Z,345
2016-04-25T08:12:43.664Z,330
2016-04-25T08:13:44.214Z,350
2016-04-25T08:14:43.732Z,340
2016-04-25T08:15:43.922Z,385
2016-04-25T08:16:46.783Z,400
2016-04-25T08:17:47.725Z,465
2016-04-25T08:18:46.039Z,435
2016-04-25T08:19:45.824Z,405
2016-04-25T08:20:46.951Z,435
2016-04-25T08:21:46.704Z,475
2016-04-25T08:22:44.051Z,495
2016-04-25T08:23:44.070Z,470
2016-04-25T08:24:44.150Z,395
2016-04-25T08:25:44.169Z,330
2016-04-25T08:26:44.172Z,280
2016-04-25T08:27:44.408Z,255
2016-04-25T08:28:45.989Z,240
2016-04-25T08:29:44.523Z,230
2016-04-25T08:30:44.604Z,240
2016-04-25T08:31:44.372Z,245
2016-04-25T08:32:47.125Z,260
2016-04-25T08:33:44.455Z,280
2016-04-25T08:34:44.475Z,315
2016-04-25T08:35:44.555Z,335
2016-04-25T08:36:45.902Z,390
2016-04-25T08:37:44.591Z,460
2016-04-25T08:38:44.657Z,430
2016-04-25T08:39:44.691Z,465
2016-04-25T08:40:46.838Z,535
2016-04-25T08:41:44.810Z,600
2016-04-25T08:42:45.204Z,605
2016-04-25T08:43:54.878Z,535
2016-04-25T08:44:45.819Z,450
2016-04-25T08:45:45.977Z,400
2016-04-25T08:46:44.934Z,350
2016-04-25T08:47:45.061Z,300
2016-04-25T08:48:46.657Z,270
2016-04-25T08:49:45.567Z,240
2016-04-25T08:50:45.178Z,200
2016-04-25T08:51:45.493Z,185
2016-04-25T08:52:45.215Z,165
2016-04-25T08:53:46.905Z,165
2016-04-25T08:54:45.923Z,185
2016-04-25T08:55:45.333Z,230
2016-04-25T08:56:46.116Z,275
2016-04-25T08:57:45.353Z,320
2016-04-25T08:58:45.497Z,360
2016-04-25T08:59:45.672Z,390
2016-04-25T09:00:45.455Z,410
2016-04-25T09:01:46.677Z,420
2016-04-25T09:02:46.647Z,430
2016-04-25T09:03:45.635Z,435
2016-04-25T09:04:45.653Z,445
2016-04-25T09:05:45.656Z,460
2016-04-25T09:06:45.799Z,460
2016-04-25T09:07:45.740Z,475
2016-04-25T09:08:45.758Z,495
2016-04-25T09:09:45.042Z,515
2016-04-25T09:10:45.904Z,520
2016-04-25T09:11:45.907Z,500
2016-04-25T09:12:45.909Z,460
2016-04-25T09:13:46.537Z,445
2016-04-25T09:14:45.915Z,420
2016-04-25T09:15:46.042Z,410
2016-04-25T09:16:46.049Z,440
2016-04-25T09:17:45.396Z,505
2016-04-25T09:18:46.180Z,605
2016-04-25T09:19:46.213Z,640
2016-04-25T09:20:46.216Z,625
2016-04-25T09:21:46.485Z,610
2016-04-25T09:22:46.363Z,640
2016-04-25T09:23:46.880Z,550
2016-04-25T09:24:46.883Z,560
2016-04-25T09:25:46.542Z,585
2016-04-25T09:26:46.513Z,610
2016-04-25T09:27:46.485Z,630
2016-04-25T09:28:47.535Z,655
2016-04-25T09:29:46.724Z,655
2016-04-25T09:30:46.790Z,640
2016-04-25T09:31:46.651Z,635
2016-04-25T09:32:46.718Z,580
2016-04-25T09:33:46.735Z,500
2016-04-25T09:34:47.175Z,455
2016-04-25T09:35:46.803Z,410
2016-04-25T09:36:46.884Z,370
2016-04-25T09:37:46.950Z,360
2016-04-25T09:38:46.952Z,375
2016-04-25T09:39:48.158Z,430
2016-04-25T09:40:47.020Z,470
2016-04-25T09:41:47.100Z,495
2016-04-25T09:42:49.009Z,475
2016-04-25T09:43:47.450Z,435
2016-04-25T09:44:47.358Z,400
2016-04-25T09:45:47.314Z,350
2016-04-25T09:46:47.270Z,370
2016-04-25T09:47:47.727Z,425
2016-04-25T09:48:47.338Z,505
2016-04-25T09:49:47.528Z,590
2016-04-25T09:50:47.438Z,660
2016-04-25T09:51:47.440Z,730
2016-04-25T09:52:47.490Z,800
2016-04-25T09:53:47.585Z,815
2016-04-25T09:54:47.557Z,855
2016-04-25T09:55:47.888Z,920
2016-04-25T09:56:47.719Z,925
2016-04-25T09:57:47.768Z,890
2016-04-25T09:58:49.021Z,815
2016-04-25T09:59:48.712Z,945
2016-04-25T10:00:49.183Z,1065
2016-04-25T10:01:47.873Z,695
2016-04-25T10:02:47.907Z,620
2016-04-25T10:03:47.925Z,1370
2016-04-25T10:04:49.318Z,2920
2016-04-25T10:05:48.009Z,2950
2016-04-25T10:06:48.043Z,2455
2016-04-25T10:07:48.123Z,2125
2016-04-25T10:08:49.767Z,2790
2016-04-25T10:09:50.426Z,1055
2016-04-25T10:10:48.226Z,3150
2016-04-25T10:11:48.369Z,2280
2016-04-25T10:12:48.449Z,1395
2016-04-25T10:13:48.812Z,1005
2016-04-25T10:14:48.346Z,1340
2016-04-25T10:15:48.473Z,890
2016-04-25T10:16:48.523Z,1210
2016-04-25T10:17:52.478Z,715
2016-04-25T10:18:48.653Z,1810
2016-04-25T10:19:49.750Z,635
2016-04-25T10:20:52.144Z,690
2016-04-25T10:21:48.724Z,580
2016-04-25T10:22:48.820Z,530
2016-04-25T10:23:48.854Z,415
2016-04-25T10:24:48.826Z,395
2016-04-25T10:25:48.141Z,410
2016-04-25T10:26:50.582Z,430
2016-04-25T10:27:49.224Z,470
2016-04-25T10:28:48.930Z,540
2016-04-25T10:29:50.511Z,610
2016-04-25T10:30:51.968Z,710
2016-04-25T10:31:57.772Z,890
2016-04-25T10:33:00.181Z,895
2016-04-25T10:34:03.824Z,835
2016-04-25T10:34:56.065Z,735
2016-04-25T10:35:58.481Z,645
2016-04-25T10:36:55.451Z,655
2016-04-25T10:37:55.595Z,700
2016-04-25T10:39:00.332Z,775
2016-04-25T10:40:01.195Z,1475
2016-04-25T10:40:54.932Z,1460
2016-04-25T10:41:58.778Z,2355
2016-04-25T10:42:54.608Z,1445
2016-04-25T10:43:55.580Z,1150
2016-04-25T10:44:53.255Z,1690
2016-04-25T10:45:51.711Z,2150
2016-04-25T10:46:52.447Z,3345
2016-04-25T10:47:51.606Z,1190
2016-04-25T10:48:49.531Z,2395
2016-04-25T10:49:54.159Z,1980
2016-04-25T10:50:49.255Z,1975
2016-04-25T10:51:51.664Z,2955
2016-04-25T10:52:51.307Z,2940
2016-04-25T10:53:50.372Z,2990
2016-04-25T10:54:51.515Z,3010
2016-04-25T10:55:51.128Z,3150
2016-04-25T10:56:50.521Z,2190
2016-04-25T10:57:51.290Z,3370
2016-04-25T10:58:51.057Z,3405
2016-04-25T10:59:51.952Z,3565
2016-04-25T11:00:50.657Z,3635
2016-04-25T11:01:52.316Z,3065
2016-04-25T11:02:51.396Z,2965
2016-04-25T11:03:51.181Z,3405
2016-04-25T11:04:54.902Z,3445
2016-04-25T11:05:51.936Z,3515
2016-04-25T11:06:51.157Z,3430
2016-04-25T11:07:51.176Z,3465
2016-04-25T11:08:50.210Z,4060
2016-04-25T11:09:52.665Z,3950
2016-04-25T11:10:53.871Z,3925
2016-04-25T11:11:51.234Z,3720
2016-04-25T11:12:51.126Z,1415
2016-04-25T11:13:51.238Z,2860
2016-04-25T11:14:52.586Z,3735
2016-04-25T11:15:52.119Z,3995
2016-04-25T11:16:53.247Z,3915
2016-04-25T11:17:50.656Z,4045
2016-04-25T11:18:51.440Z,3980
2016-04-25T11:19:51.599Z,3325
2016-04-25T11:20:51.930Z,2565
2016-04-25T11:21:52.136Z,2305
2016-04-25T11:22:52.263Z,1490
2016-04-25T11:23:52.688Z,875
2016-04-25T11:24:52.299Z,545
2016-04-25T11:25:52.302Z,470
2016-04-25T11:26:52.539Z,500
2016-04-25T11:27:52.511Z,550
2016-04-25T11:28:52.530Z,585
2016-04-25T11:29:53.563Z,665
2016-04-25T11:30:53.972Z,965
2016-04-25T11:31:51.944Z,995
2016-04-25T11:32:52.196Z,1575
2016-04-25T11:33:52.152Z,1200
2016-04-25T11:34:52.217Z,2475
2016-04-25T11:35:52.517Z,3370
2016-04-25T11:36:52.363Z,3395
2016-04-25T11:37:52.350Z,3220
2016-04-25T11:38:53.243Z,3330
2016-04-25T11:39:52.559Z,3345
2016-04-25T11:40:54.061Z,3505
2016-04-25T11:41:52.548Z,3695
2016-04-25T11:42:52.614Z,3785
2016-04-25T11:43:52.803Z,3920
2016-04-25T11:44:52.947Z,3955
2016-04-25T11:45:52.919Z,4000
2016-04-25T11:46:52.687Z,3900
2016-04-25T11:47:53.132Z,3865
2016-04-25T11:48:56.061Z,3910
2016-04-25T11:49:52.986Z,3970
2016-04-25T11:50:53.067Z,755
2016-04-25T11:51:53.085Z,995
2016-04-25T11:52:53.124Z,560
2016-04-25T11:53:57.095Z,505
2016-04-25T11:54:56.379Z,480
2016-04-25T11:55:55.710Z,455
2016-04-25T11:57:01.182Z,420
2016-04-25T11:57:54.622Z,405
2016-04-25T11:58:58.781Z,430
2016-04-25T11:59:56.971Z,465
2016-04-25T12:00:57.192Z,540
2016-04-25T12:01:55.820Z,620
2016-04-25T12:02:53.682Z,735
2016-04-25T12:03:55.123Z,880
2016-04-25T12:04:55.469Z,1285
2016-04-25T12:05:55.831Z,3725
2016-04-25T12:06:55.020Z,2880
2016-04-25T12:07:53.570Z,2715
2016-04-25T12:08:55.808Z,3450
2016-04-25T12:09:54.748Z,3585
2016-04-25T12:10:54.844Z,3865
2016-04-25T12:11:54.581Z,3935
2016-04-25T12:12:56.819Z,3895
2016-04-25T12:13:55.461Z,3680
2016-04-25T12:14:54.089Z,3850
2016-04-25T12:15:54.716Z,3725
2016-04-25T12:16:55.579Z,3030
2016-04-25T12:17:56.675Z,3790
2016-04-25T12:18:55.038Z,2970
2016-04-25T12:19:55.822Z,460
2016-04-25T12:20:55.121Z,520
2016-04-25T12:21:54.858Z,585
2016-04-25T12:22:55.189Z,3765
2016-04-25T12:23:55.676Z,3715
2016-04-25T12:24:57.148Z,3720
2016-04-25T12:25:55.947Z,3725
2016-04-25T12:26:55.153Z,3740
2016-04-25T12:27:55.609Z,3710
2016-04-25T12:28:59.643Z,3690
2016-04-25T12:30:00.818Z,3450
2016-04-25T12:30:57.585Z,1525
2016-04-25T12:31:58.245Z,1950
2016-04-25T12:32:57.904Z,1680
2016-04-25T12:33:58.547Z,2155
2016-04-25T12:34:55.987Z,2865
2016-04-25T12:35:56.020Z,1640
2016-04-25T12:36:56.601Z,3390
2016-04-25T12:38:01.058Z,2990
2016-04-25T12:39:00.278Z,1380
2016-04-25T12:40:01.172Z,3565
2016-04-25T12:40:57.894Z,3445
2016-04-25T12:41:57.803Z,3395
2016-04-25T12:43:00.039Z,3265
2016-04-25T12:43:56.995Z,3405
2016-04-25T12:44:59.748Z,695
2016-04-25T12:45:57.172Z,3450
2016-04-25T12:46:56.723Z,625
2016-04-25T12:47:56.210Z,470
2016-04-25T12:48:57.399Z,385
2016-04-25T12:49:56.512Z,350
2016-04-25T12:50:56.171Z,325
2016-04-25T12:51:56.360Z,315
2016-04-25T12:52:56.598Z,315
2016-04-25T12:53:56.241Z,350
2016-04-25T12:54:56.431Z,465
2016-04-25T12:55:58.357Z,1410
2016-04-25T12:56:57.363Z,795
2016-04-25T12:57:56.960Z,725
2016-04-25T12:58:56.604Z,1200
2016-04-25T12:59:58.496Z,510
2016-04-25T13:00:56.593Z,465
2016-04-25T13:01:58.284Z,455
2016-04-25T13:03:01.208Z,485
2016-04-25T13:03:57.523Z,505
2016-04-25T13:04:56.917Z,1295
2016-04-25T13:06:03.591Z,560
2016-04-25T13:06:58.922Z,575
2016-04-25T13:07:58.659Z,595
2016-04-25T13:08:56.990Z,620
2016-04-25T13:09:59.289Z,680
2016-04-25T13:10:57.808Z,920
2016-04-25T13:12:02.389Z,2250
2016-04-25T13:12:56.469Z,3025
2016-04-25T13:13:57.596Z,2895
2016-04-25T13:14:59.256Z,2900
2016-04-25T13:15:58.478Z,900
2016-04-25T13:16:58.417Z,720
2016-04-25T13:17:58.068Z,740
2016-04-25T13:18:57.820Z,2355
2016-04-25T13:19:59.823Z,2520
2016-04-25T13:21:01.295Z,2315
2016-04-25T13:22:01.297Z,2475
2016-04-25T13:23:00.659Z,2585
2016-04-25T13:24:01.193Z,2495
2016-04-25T13:25:03.008Z,2510
2016-04-25T13:26:00.417Z,2490
2016-04-25T13:27:00.576Z,2515
2016-04-25T13:27:58.594Z,2550
2016-04-25T13:29:01.316Z,2610
2016-04-25T13:30:04.975Z,2640
2016-04-25T13:31:02.650Z,2650
2016-04-25T13:32:01.714Z,2690
2016-04-25T13:33:02.077Z,2760
2016-04-25T13:34:00.986Z,2595
2016-04-25T13:35:01.583Z,2685
2016-04-25T13:35:59.147Z,2720
2016-04-25T13:36:59.384Z,2620
2016-04-25T13:37:59.700Z,2555
2016-04-25T13:39:00.061Z,2560
2016-04-25T13:39:58.689Z,2560
2016-04-25T13:40:58.739Z,2560
2016-04-25T13:41:59.382Z,2530
2016-04-25T13:42:58.713Z,2530
2016-04-25T13:43:59.810Z,2510
2016-04-25T13:44:59.516Z,2525
2016-04-25T13:45:59.159Z,585
2016-04-25T13:46:59.957Z,475
2016-04-25T13:48:00.164Z,580
2016-04-25T13:48:59.370Z,2260
2016-04-25T13:50:03.170Z,2175
2016-04-25T13:50:59.063Z,1505
2016-04-25T13:51:59.128Z,1655
2016-04-25T13:52:59.287Z,2265
2016-04-25T13:54:01.023Z,2135
2016-04-25T13:54:59.354Z,2070
2016-04-25T13:55:59.686Z,2000
2016-04-25T13:57:01.313Z,760
2016-04-25T13:57:59.425Z,665
2016-04-25T13:58:59.537Z,675
2016-04-25T14:00:01.775Z,700